Time;durP1;ratioP1;P1;durP2;ratioP2;P2;SDS_P1;SDS_P2;PMS_P1;PMS_P2;Temp;Humidity;BMP_temperature;BMP_pressure;BME280_temperature;BME280_humidity;BME280_pressure;Samples;Min_cycle;Max_cycle;Signal;HPM_P1;HPM_P2
2021/01/05 00:10:41;;;;;;;23.80;16.27;;;;;;;1.83;85.44;100623.78;4978481;28;20772;-84
2021/01/05 00:13:10;;;;;;;25.00;15.93;;;;;;;1.81;85.22;100617.75;5042021;28;20749;-82
2021/01/05 00:43:17;;;;;;;19.67;14.43;;;;;;;1.85;84.29;100614.41;1482467;26;20242;-83
2021/01/05 01:04:21;;;;;;;14.63;13.10;;;;;;;1.75;84.78;100613.34;5646651;22;20237;-83
2021/01/05 01:06:47;;;;;;;14.00;12.70;;;;;;;1.76;84.59;100607.38;5027827;28;20688;-84
2021/01/05 01:09:13;;;;;;;14.97;12.87;;;;;;;1.76;84.18;100609.06;5031409;28;20214;-82
2021/01/05 01:11:39;;;;;;;14.03;12.70;;;;;;;1.75;84.25;100605.63;5038811;28;20206;-85
2021/01/05 01:14:05;;;;;;;14.37;12.73;;;;;;;1.75;84.28;100608.19;5036260;28;20209;-85
2021/01/05 01:16:31;;;;;;;14.77;13.37;;;;;;;1.74;85.09;100609.03;5037719;28;20209;-84
2021/01/05 01:18:57;;;;;;;14.37;12.87;;;;;;;1.79;84.34;100607.41;5034673;28;20600;-82
2021/01/05 01:21:23;;;;;;;13.83;12.47;;;;;;;1.81;83.82;100604.88;5031843;28;20194;-85
2021/01/05 01:23:49;;;;;;;13.77;12.47;;;;;;;1.81;84.18;100610.03;5033838;28;20264;-85
2021/01/05 01:26:15;;;;;;;14.30;12.90;;;;;;;1.72;84.54;100614.97;5038547;28;20210;-82
2021/01/05 01:28:43;;;;;;;13.67;12.37;;;;;;;1.76;84.78;100609.06;5032562;28;20225;-84
2021/01/05 01:31:09;;;;;;;13.83;12.43;;;;;;;1.78;85.20;100610.84;5037141;28;20226;-82
2021/01/05 01:46:16;;;;;;;13.33;12.03;;;;;;;1.72;84.66;100615.84;4989620;28;20637;-81
2021/01/05 01:48:43;;;;;;;13.40;12.10;;;;;;;1.72;84.97;100620.13;4991088;28;20637;-80
2021/01/05 01:51:10;;;;;;;13.33;11.70;;;;;;;1.72;85.15;100614.97;4996534;28;20212;-82
2021/01/05 01:54:06;;;;;;;13.23;12.03;;;;;;;1.74;85.02;100611.59;5016309;28;20537;-82
2021/01/05 01:56:50;;;;;;;15.50;12.50;;;;;;;1.76;84.58;100611.63;5060264;28;20247;-82
2021/01/05 01:59:30;;;;;;;13.87;12.47;;;;;;;1.72;84.73;100609.84;5066801;28;20631;-81
2021/01/05 02:01:59;;;;;;;13.63;12.23;;;;;;;1.74;84.24;100606.44;5063911;28;20208;-80
2021/01/05 02:04:45;;;;;;;13.83;12.37;;;;;;;1.73;84.98;100601.28;5059703;28;20295;-81
2021/01/05 02:07:22;;;;;;;12.20;11.00;;;;;;;1.75;84.14;100609.91;5068503;28;20196;-81
2021/01/05 02:10:06;;;;;;;13.77;12.37;;;;;;;1.72;84.78;100605.56;5067353;28;20217;-81
2021/01/05 02:12:38;;;;;;;14.70;13.23;;;;;;;1.75;84.00;100607.34;5047496;28;20194;-82
2021/01/05 02:15:15;;;;;;;13.67;12.27;;;;;;;1.76;84.45;100599.66;5053827;28;20215;-81
2021/01/05 02:18:00;;;;;;;13.93;12.53;;;;;;;1.73;83.85;100602.16;5067652;28;20201;-81
2021/01/05 02:20:29;;;;;;;14.80;12.30;;;;;;;1.68;84.12;100608.91;5052081;28;20229;-81
2021/01/05 02:23:05;;;;;;;12.47;11.17;;;;;;;1.72;84.54;100610.69;5063026;28;20212;-82
2021/01/05 02:25:47;;;;;;;15.40;13.77;;;;;;;1.75;84.67;100604.75;5068820;28;20197;-80
2021/01/05 02:28:16;;;;;;;15.20;12.73;;;;;;;1.74;84.67;100609.03;5089434;28;20236;-80
2021/01/05 02:30:49;;;;;;;13.37;11.97;;;;;;;1.78;84.25;100608.28;5061451;28;20206;-81
2021/01/05 02:33:28;;;;;;;12.87;11.67;;;;;;;1.70;85.06;100607.22;5086940;28;20181;-80
2021/01/05 02:36:15;;;;;;;17.07;12.70;;;;;;;1.74;84.38;100609.03;5066408;28;20182;-80
2021/01/05 02:39:16;;;;;;;14.87;12.53;;;;;;;1.72;84.43;100602.97;5083673;28;20232;-80
2021/01/05 02:41:53;;;;;;;16.20;13.33;;;;;;;1.75;84.79;100607.34;5082382;28;20215;-80
2021/01/05 02:44:30;;;;;;;16.77;13.13;;;;;;;1.74;84.35;100608.16;5072279;28;20220;-81
2021/01/05 02:47:01;;;;;;;15.33;13.47;;;;;;;1.72;84.80;100608.13;5097882;28;20214;-80
2021/01/05 02:49:35;;;;;;;15.90;13.43;;;;;;;1.71;85.18;100602.97;5087311;28;20242;-80
2021/01/05 02:52:41;;;;;;;16.97;14.50;;;;;;;1.75;84.49;100604.75;5083754;28;20603;-82
2021/01/05 02:55:38;;;;;;;16.33;14.37;;;;;;;1.76;84.56;100603.91;5060233;28;20205;-83
2021/01/05 02:58:36;;;;;;;18.27;15.23;;;;;;;1.77;84.87;100601.38;5063596;28;20224;-81
2021/01/05 03:01:40;;;;;;;17.70;13.63;;;;;;;1.73;85.08;100602.16;5067578;28;20577;-82
2021/01/05 03:04:06;;;;;;;17.13;13.83;;;;;;;1.67;85.71;100603.75;5067466;28;20263;-80
2021/01/05 03:06:38;;;;;;;21.67;16.07;;;;;;;1.68;85.40;100608.91;5066571;28;20225;-82
2021/01/05 03:09:33;;;;;;;18.17;15.53;;;;;;;1.68;85.45;100614.03;5075397;28;20222;-83
2021/01/05 03:12:12;;;;;;;17.53;14.93;;;;;;;1.73;85.56;100612.44;5070307;28;20204;-82
2021/01/05 03:14:53;;;;;;;17.83;14.63;;;;;;;1.78;85.25;100612.53;5070413;28;20208;-82
2021/01/05 03:17:25;;;;;;;21.03;14.47;;;;;;;1.76;85.10;100609.94;5061338;28;20194;-82
2021/01/05 03:20:03;;;;;;;17.80;14.40;;;;;;;1.78;84.54;100615.09;5071256;28;20694;-81
2021/01/05 03:22:31;;;;;;;22.13;15.77;;;;;;;1.80;85.38;100608.28;5063567;28;20200;-81
2021/01/05 03:24:59;;;;;;;20.77;14.87;;;;;;;1.75;84.71;100609.91;5071944;28;20217;-82
2021/01/05 03:27:26;;;;;;;16.63;13.17;;;;;;;1.78;84.50;100607.38;5072340;28;20235;-81
2021/01/05 03:29:56;;;;;;;16.00;13.83;;;;;;;1.82;84.77;100606.59;5065940;28;20222;-82
2021/01/05 03:32:22;;;;;;;19.30;14.80;;;;;;;1.80;84.23;100605.69;5069666;28;20197;-82
2021/01/05 03:34:48;;;;;;;16.57;14.53;;;;;;;1.81;84.63;100606.59;5065983;28;20711;-82
2021/01/05 03:37:14;;;;;;;22.37;14.57;;;;;;;1.77;85.34;100610.81;5067611;28;20200;-82
2021/01/05 03:39:39;;;;;;;21.93;15.93;;;;;;;1.75;85.31;100608.19;5060622;28;20241;-83
2021/01/05 03:42:06;;;;;;;20.63;14.23;;;;;;;1.77;84.74;100608.22;5068335;28;20578;-81
2021/01/05 03:44:33;;;;;;;19.57;15.30;;;;;;;1.79;85.44;100609.13;5061483;28;20259;-82
2021/01/05 03:47:00;;;;;;;16.07;14.03;;;;;;;1.83;84.99;100597.19;5068840;28;20283;-82
2021/01/05 03:49:26;;;;;;;17.97;15.10;;;;;;;1.81;84.78;100594.59;5071596;28;20221;-81
2021/01/05 03:51:51;;;;;;;20.60;15.27;;;;;;;1.83;84.50;100594.63;5068161;28;20205;-81
2021/01/05 03:54:17;;;;;;;18.90;15.33;;;;;;;1.83;85.00;100592.03;5072902;28;20558;-82
2021/01/05 03:56:43;;;;;;;16.77;14.97;;;;;;;1.81;85.31;100599.72;5069310;28;20662;-83
2021/01/05 03:59:09;;;;;;;22.57;15.47;;;;;;;1.77;84.74;100592.78;5073822;28;20225;-81
2021/01/05 04:01:35;;;;;;;21.60;15.50;;;;;;;1.72;85.29;100600.41;5067647;28;20223;-82
2021/01/05 04:04:02;;;;;;;23.70;16.53;;;;;;;1.76;85.88;100591.03;5065669;28;20210;-82
2021/01/05 04:06:28;;;;;;;23.10;16.57;;;;;;;1.81;85.03;100599.72;5073929;28;20229;-82
2021/01/05 04:08:54;;;;;;;25.73;16.67;;;;;;;1.82;85.31;100593.72;5066980;28;20675;-82
2021/01/05 04:11:21;;;;;;;24.50;17.30;;;;;;;1.81;85.40;100602.31;5054392;28;20754;-82
2021/01/05 04:13:46;;;;;;;23.60;17.57;;;;;;;1.79;84.74;100597.13;5067180;28;20206;-81
2021/01/05 04:16:13;;;;;;;20.00;16.17;;;;;;;1.83;84.83;100599.78;5066047;28;20202;-82
2021/01/05 04:18:38;;;;;;;23.97;16.33;;;;;;;1.79;85.07;100604.84;5066775;28;20252;-83
2021/01/05 04:21:05;;;;;;;23.07;16.07;;;;;;;1.84;85.26;100601.50;5064350;28;20232;-82
2021/01/05 04:23:31;;;;;;;22.27;17.67;;;;;;;1.85;84.94;100601.53;5062797;28;20210;-82
2021/01/05 04:25:57;;;;;;;24.10;17.37;;;;;;;1.85;84.50;100591.22;5057687;28;20217;-82
2021/01/05 04:28:23;;;;;;;24.83;16.77;;;;;;;1.84;84.63;100597.19;5063746;28;20217;-82
2021/01/05 04:30:48;;;;;;;27.30;17.87;;;;;;;1.80;84.75;100600.56;5064216;28;20208;-82
2021/01/05 04:33:14;;;;;;;26.53;17.77;;;;;;;1.77;85.16;100600.50;5074099;28;20231;-82
2021/01/05 04:35:40;;;;;;;30.37;18.23;;;;;;;1.77;85.33;100606.53;5058690;28;20202;-82
2021/01/05 04:38:07;;;;;;;24.43;16.87;;;;;;;1.82;84.75;100609.16;5072933;28;20192;-82
2021/01/05 04:40:35;;;;;;;27.00;17.83;;;;;;;1.83;84.88;100604.91;5054852;28;20225;-82
2021/01/05 04:43:19;;;;;;;24.93;17.53;;;;;;;1.82;85.85;100606.59;5070380;28;20201;-82
2021/01/05 04:45:52;;;;;;;29.93;17.37;;;;;;;1.84;85.35;100604.91;5046120;28;20753;-81
2021/01/05 04:48:35;;;;;;;25.40;17.00;;;;;;;1.82;84.87;100608.31;5066180;28;20193;-81
2021/01/05 04:51:07;;;;;;;31.13;17.50;;;;;;;1.82;85.01;100608.31;5065749;28;20205;-82
2021/01/05 04:53:43;;;;;;;25.73;17.53;;;;;;;1.78;85.47;100609.94;5066023;28;20204;-82
2021/01/05 04:56:11;;;;;;;23.80;16.13;;;;;;;1.78;85.09;100610.84;5068416;28;20258;-82
2021/01/05 04:58:42;;;;;;;25.70;17.00;;;;;;;1.76;85.96;100614.19;5059395;28;20232;-81
2021/01/05 05:01:15;;;;;;;31.97;17.20;;;;;;;1.79;85.11;100612.56;5077517;28;20189;-82
2021/01/05 05:03:53;;;;;;;25.97;16.77;;;;;;;1.83;85.03;100604.91;5068300;28;20674;-81
2021/01/05 05:06:29;;;;;;;21.33;15.93;;;;;;;1.81;84.86;100610.03;5075675;28;20612;-81
2021/01/05 05:09:15;;;;;;;26.40;17.17;;;;;;;1.83;85.51;100612.63;5061407;28;20315;-81
2021/01/05 05:11:49;;;;;;;22.97;17.70;;;;;;;1.74;85.19;100610.72;5068087;28;20197;-81
2021/01/05 05:14:23;;;;;;;24.83;17.07;;;;;;;1.79;84.95;100615.13;5062844;28;20206;-81
2021/01/05 05:17:02;;;;;;;23.10;17.40;;;;;;;1.80;85.50;100613.41;5067969;28;20451;-82
2021/01/05 05:19:52;;;;;;;23.57;16.20;;;;;;;1.83;85.83;100615.22;5052793;28;20228;-82
2021/01/05 05:22:26;;;;;;;25.47;16.53;;;;;;;1.75;85.32;100613.34;5068913;28;20197;-82
2021/01/05 05:24:57;;;;;;;24.70;16.73;;;;;;;1.77;85.48;100611.66;5059462;28;20232;-82
2021/01/05 05:27:30;;;;;;;25.23;17.37;;;;;;;1.81;85.07;100619.47;5076655;28;20208;-82
2021/01/05 05:30:01;;;;;;;25.70;16.73;;;;;;;1.82;85.25;100622.03;5068756;28;20224;-81
2021/01/05 05:32:33;;;;;;;26.90;16.40;;;;;;;1.81;84.96;100619.47;5061445;28;20209;-82
2021/01/05 05:35:28;;;;;;;26.40;17.47;;;;;;;1.75;85.11;100621.06;5063865;28;20274;-82
2021/01/05 05:37:57;;;;;;;23.87;16.10;;;;;;;1.79;84.91;100616.84;5057034;28;20198;-82
2021/01/05 05:40:37;;;;;;;25.63;16.63;;;;;;;1.77;84.98;100624.53;5062923;28;20224;-81
2021/01/05 05:43:39;;;;;;;23.17;16.17;;;;;;;1.75;85.17;100613.34;5059637;28;20197;-81
2021/01/05 05:46:08;;;;;;;27.40;17.30;;;;;;;1.77;85.68;100615.94;4960420;28;20208;-80
2021/01/05 05:48:43;;;;;;;27.67;16.87;;;;;;;1.73;84.87;100612.44;5038451;28;20221;-81
2021/01/05 05:51:13;;;;;;;19.40;16.13;;;;;;;1.74;85.45;100614.16;5059169;28;20228;-81
2021/01/05 05:53:43;;;;;;;21.47;16.77;;;;;;;1.77;84.78;100618.53;5062313;28;20663;-82
2021/01/05 05:56:13;;;;;;;27.30;16.03;;;;;;;1.73;85.92;100617.59;5066385;28;20201;-81
2021/01/05 05:58:41;;;;;;;26.60;16.47;;;;;;;1.75;85.16;100621.06;5073124;28;20231;-81
2021/01/05 06:01:11;;;;;;;21.30;16.83;;;;;;;1.75;85.05;100623.63;5060638;28;20198;-81
2021/01/05 06:03:37;;;;;;;23.57;16.70;;;;;;;1.79;85.69;100625.44;5063575;28;20215;-81
2021/01/05 06:06:04;;;;;;;26.00;16.70;;;;;;;1.72;85.58;100622.69;5056953;28;20203;-81
2021/01/05 06:08:30;;;;;;;26.27;18.63;;;;;;;1.69;86.29;100630.38;5064433;28;20267;-82
2021/01/05 06:10:56;;;;;;;26.00;16.77;;;;;;;1.73;85.52;100632.16;5063725;28;20209;-82
2021/01/05 06:13:23;;;;;;;31.43;19.03;;;;;;;1.74;86.18;100636.47;5055070;28;20197;-82
2021/01/05 06:15:49;;;;;;;26.33;16.57;;;;;;;1.71;85.59;100631.28;5058212;28;20658;-82
2021/01/05 06:18:17;;;;;;;21.07;15.70;;;;;;;1.71;85.70;100644.16;5067732;28;20212;-83
2021/01/05 06:20:43;;;;;;;20.00;15.47;;;;;;;1.73;85.81;100645.91;5057064;28;20202;-82
2021/01/05 06:23:09;;;;;;;23.70;16.03;;;;;;;1.73;85.56;100645.03;5064787;28;20251;-81
2021/01/05 06:25:36;;;;;;;22.63;14.87;;;;;;;1.74;85.44;100645.03;5056491;28;20205;-81
2021/01/05 06:28:02;;;;;;;22.00;15.90;;;;;;;1.78;85.88;100645.97;5077920;28;20250;-82
2021/01/05 06:30:29;;;;;;;17.23;14.20;;;;;;;1.79;84.85;100637.44;5052055;28;20563;-82
2021/01/05 06:32:55;;;;;;;19.30;15.60;;;;;;;1.79;84.89;100643.44;5072321;28;20197;-82
2021/01/05 06:35:22;;;;;;;18.67;15.07;;;;;;;1.80;85.71;100639.16;5060107;28;20229;-82
2021/01/05 06:37:49;;;;;;;17.03;15.17;;;;;;;1.80;85.76;100644.31;5067491;28;20573;-80
2021/01/05 06:40:17;;;;;;;22.17;16.20;;;;;;;1.81;85.76;100646.06;5060832;28;20230;-81
2021/01/05 06:42:43;;;;;;;19.30;16.43;;;;;;;1.80;85.39;100649.44;5059028;28;20547;-81
2021/01/05 06:45:14;;;;;;;15.27;13.53;;;;;;;1.81;84.89;100645.19;5051699;28;20555;-82
2021/01/05 06:47:41;;;;;;;15.47;13.57;;;;;;;1.77;84.96;100645.13;5061408;28;20201;-82
2021/01/05 06:50:08;;;;;;;19.90;14.93;;;;;;;1.81;84.68;100645.19;5061792;28;20222;-83
2021/01/05 06:52:34;;;;;;;16.77;13.97;;;;;;;1.82;85.40;100641.78;5059511;28;20196;-82
2021/01/05 06:55:00;;;;;;;18.50;15.23;;;;;;;1.82;85.05;100642.63;5062060;28;20685;-82
2021/01/05 06:57:26;;;;;;;21.90;17.53;;;;;;;1.84;84.90;100645.25;5065969;28;20205;-81
2021/01/05 06:59:52;;;;;;;19.07;16.07;;;;;;;1.83;85.12;100643.53;5072064;28;20240;-82
2021/01/05 07:02:17;;;;;;;14.40;12.93;;;;;;;1.85;84.77;100639.28;5068657;28;20205;-81
2021/01/05 07:04:44;;;;;;;19.63;13.00;;;;;;;1.87;85.39;100645.31;5057026;28;20236;-82
2021/01/05 07:07:10;;;;;;;17.60;14.00;;;;;;;1.83;85.09;100653.81;5061998;28;20206;-81
2021/01/05 07:09:36;;;;;;;20.50;15.70;;;;;;;1.84;84.93;100645.25;5070432;28;20217;-82
2021/01/05 07:12:03;;;;;;;18.00;13.83;;;;;;;1.87;84.35;100645.31;5061958;28;20259;-82
2021/01/05 07:14:29;;;;;;;15.67;13.67;;;;;;;1.87;85.21;100648.75;5061234;28;20208;-82
2021/01/05 07:16:55;;;;;;;15.27;13.70;;;;;;;1.90;85.18;100655.66;5063993;28;20233;-82
2021/01/05 07:19:21;;;;;;;16.27;13.57;;;;;;;1.87;85.49;100659.03;5067628;28;20228;-82
2021/01/05 07:21:48;;;;;;;15.57;13.90;;;;;;;1.88;85.50;100660.75;5069459;28;20658;-82
2021/01/05 07:24:14;;;;;;;15.67;12.63;;;;;;;1.91;85.20;100653.13;5061708;28;20690;-82
2021/01/05 07:26:45;;;;;;;15.57;13.43;;;;;;;1.88;85.21;100659.91;5064070;28;20201;-82
2021/01/05 07:29:12;;;;;;;15.80;13.83;;;;;;;1.85;85.36;100672.72;5067383;28;21658;-82
2021/01/05 07:31:38;;;;;;;13.70;11.47;;;;;;;1.91;84.70;100673.72;5060568;28;20205;-82
2021/01/05 07:34:04;;;;;;;12.53;11.33;;;;;;;1.94;84.89;100673.78;5059387;28;20285;-80
2021/01/05 07:36:33;;;;;;;13.83;12.43;;;;;;;1.89;85.25;100677.97;5059526;28;20284;-82
2021/01/05 07:38:59;;;;;;;14.83;11.43;;;;;;;1.91;84.92;100675.44;5066357;28;20228;-81
2021/01/05 07:41:25;;;;;;;13.27;11.63;;;;;;;1.89;84.34;100679.69;5069154;28;20217;-81
2021/01/05 07:43:51;;;;;;;15.93;13.23;;;;;;;1.89;85.47;100685.69;5063548;28;20202;-80
2021/01/05 07:46:17;;;;;;;13.20;11.80;;;;;;;1.91;84.49;100689.16;5066947;28;20335;-81
2021/01/05 07:48:43;;;;;;;13.77;11.63;;;;;;;1.93;84.97;100684.03;5059296;28;20714;-81
2021/01/05 07:51:10;;;;;;;13.67;12.07;;;;;;;1.93;84.51;100682.31;5060521;28;20197;-80
2021/01/05 07:53:36;;;;;;;15.27;12.77;;;;;;;1.93;84.61;100682.31;5075008;28;20196;-82
2021/01/05 07:56:04;;;;;;;17.07;12.43;;;;;;;1.92;84.81;100684.88;5070368;28;20207;-81
2021/01/05 07:58:30;;;;;;;14.97;13.47;;;;;;;1.92;84.84;100685.75;5066953;28;20217;-82
2021/01/05 08:00:56;;;;;;;19.13;12.57;;;;;;;1.94;85.32;100686.66;5062731;28;20264;-82
2021/01/05 08:03:21;;;;;;;18.80;14.30;;;;;;;1.98;85.09;100680.72;5071730;28;20193;-81
2021/01/05 08:05:48;;;;;;;14.50;12.93;;;;;;;1.94;84.97;100678.03;5063587;28;20240;-83
2021/01/05 08:08:13;;;;;;;20.60;14.33;;;;;;;1.93;84.75;100676.31;5060569;28;20208;-82
2021/01/05 08:10:40;;;;;;;14.57;12.87;;;;;;;1.92;84.38;100680.63;5062176;28;20249;-83
2021/01/05 08:13:10;;;;;;;13.97;12.43;;;;;;;1.94;84.39;100683.19;5059095;28;20193;-80
2021/01/05 08:15:37;;;;;;;16.00;12.13;;;;;;;1.91;85.08;100684.00;5053269;28;20206;-80
2021/01/05 08:18:04;;;;;;;14.70;12.63;;;;;;;1.90;85.32;100684.88;5061332;28;20218;-82
2021/01/05 08:20:32;;;;;;;15.03;13.13;;;;;;;1.93;84.71;100684.03;5054954;28;20924;-82
2021/01/05 08:22:59;;;;;;;14.27;12.87;;;;;;;1.93;84.58;100681.47;5055237;28;20205;-83
2021/01/05 08:25:24;;;;;;;14.70;13.07;;;;;;;1.94;84.92;100684.09;5053487;28;20202;-81
2021/01/05 08:27:52;;;;;;;18.27;13.90;;;;;;;1.96;84.70;100684.09;5062245;28;20210;-82
2021/01/05 08:30:20;;;;;;;15.07;12.57;;;;;;;1.98;84.69;100675.59;5058951;28;20230;-82
2021/01/05 08:32:47;;;;;;;17.70;12.77;;;;;;;1.96;84.32;100684.97;5057571;28;20212;-82
2021/01/05 08:35:14;;;;;;;18.43;14.70;;;;;;;1.94;84.94;100683.19;5055584;28;20261;-83
2021/01/05 08:37:40;;;;;;;19.07;15.17;;;;;;;1.92;84.67;100680.63;5061372;28;20659;-83
2021/01/05 08:40:10;;;;;;;17.33;14.40;;;;;;;1.90;84.79;100682.28;5062260;28;20221;-83
2021/01/05 08:42:36;;;;;;;17.23;12.73;;;;;;;1.89;85.76;100685.69;5056917;28;20216;-83
2021/01/05 08:45:03;;;;;;;22.17;13.57;;;;;;;1.91;85.77;100681.44;5067916;28;20662;-86
2021/01/05 08:47:30;;;;;;;19.58;16.88;;;;;;;1.95;84.91;100690.09;5045302;28;20491;-83
2021/01/05 08:49:56;;;;;;;19.03;14.00;;;;;;;1.97;85.86;100694.44;5061000;28;20221;-84
2021/01/05 08:52:21;;;;;;;18.70;13.60;;;;;;;2.02;85.70;100693.66;5059430;28;20252;-84
2021/01/05 08:54:47;;;;;;;14.77;12.43;;;;;;;1.98;84.96;100691.03;5063806;28;20212;-83
2021/01/05 08:57:14;;;;;;;17.63;13.67;;;;;;;1.97;85.31;100694.44;5063922;28;20243;-83
2021/01/05 08:59:40;;;;;;;22.63;14.40;;;;;;;1.97;85.46;100701.28;5060369;28;20236;-83
2021/01/05 09:02:06;;;;;;;19.80;14.27;;;;;;;1.98;85.52;100692.72;5058005;28;20197;-85
2021/01/05 09:04:34;;;;;;;18.97;13.83;;;;;;;2.01;85.58;100694.50;5057448;28;20231;-83
2021/01/05 09:07:00;;;;;;;15.13;12.93;;;;;;;1.96;85.82;100695.28;5058322;28;20206;-83
2021/01/05 09:09:26;;;;;;;17.90;13.10;;;;;;;1.95;85.85;100695.25;5058150;28;20298;-83
2021/01/05 09:11:53;;;;;;;22.67;13.77;;;;;;;1.96;86.11;100691.81;5051908;28;20678;-83
2021/01/05 09:14:19;;;;;;;19.53;13.10;;;;;;;1.99;85.96;100695.31;5061044;28;20205;-83
2021/01/05 09:16:45;;;;;;;16.47;12.73;;;;;;;2.00;85.45;100688.47;5056881;28;20214;-83
2021/01/05 09:19:11;;;;;;;20.77;13.67;;;;;;;2.04;85.17;100700.56;5054003;28;20260;-82
2021/01/05 09:21:37;;;;;;;19.00;14.00;;;;;;;1.96;85.38;100695.28;5058123;28;20210;-82
2021/01/05 09:24:05;;;;;;;18.60;12.50;;;;;;;1.99;85.65;100700.47;5055250;28;20601;-82
2021/01/05 09:26:32;;;;;;;19.90;13.60;;;;;;;2.02;85.75;100698.78;5061772;28;20802;-82
2021/01/05 09:28:59;;;;;;;20.93;13.20;;;;;;;2.05;86.38;100704.88;5055678;28;20228;-82
2021/01/05 09:31:25;;;;;;;19.50;13.13;;;;;;;2.04;85.54;100700.56;5053867;28;20216;-82
2021/01/05 09:33:52;;;;;;;20.13;14.03;;;;;;;2.08;86.19;100699.81;5054666;28;20205;-82
2021/01/05 09:36:18;;;;;;;21.37;14.50;;;;;;;2.07;86.25;100704.91;5052836;28;20228;-82
2021/01/05 09:38:46;;;;;;;20.03;14.70;;;;;;;2.09;86.32;100700.66;5054897;28;20225;-82
2021/01/05 09:41:21;;;;;;;23.50;15.40;;;;;;;2.09;85.75;100710.97;5057348;28;20214;-83
2021/01/05 09:43:47;;;;;;;20.07;13.80;;;;;;;2.06;86.47;100703.16;5056655;28;20193;-82
2021/01/05 09:46:13;;;;;;;19.30;13.50;;;;;;;2.11;86.10;100702.41;5056175;28;20277;-83
2021/01/05 09:48:39;;;;;;;24.90;18.40;;;;;;;2.11;86.10;100705.00;5055472;28;20462;-82
2021/01/05 09:51:05;;;;;;;23.50;20.02;;;;;;;2.22;86.14;100694.94;5061114;28;20524;-83
2021/01/05 09:53:31;;;;;;;25.30;16.10;;;;;;;2.29;85.80;100698.47;5056743;28;20209;-84
2021/01/05 09:55:57;;;;;;;27.80;15.60;;;;;;;2.28;85.73;100694.16;5051450;28;20212;-82
2021/01/05 09:58:23;;;;;;;22.20;15.63;;;;;;;2.31;85.46;100699.38;5055096;28;20204;-84
2021/01/05 10:00:49;;;;;;;25.70;19.60;;;;;;;2.35;85.37;100698.59;5055779;28;20466;-83
2021/01/05 10:03:18;;;;;;;27.80;16.77;;;;;;;2.39;85.21;100693.50;5071960;28;20204;-84
2021/01/05 10:05:44;;;;;;;21.43;14.90;;;;;;;2.42;84.75;100696.97;5061492;28;20678;-84
2021/01/05 10:08:09;;;;;;;23.13;16.10;;;;;;;2.45;84.64;100691.91;5055718;28;20197;-84
2021/01/05 10:10:38;;;;;;;26.30;16.27;;;;;;;2.42;84.73;100691.81;5057776;28;20245;-85
2021/01/05 10:13:05;;;;;;;21.77;15.60;;;;;;;2.42;84.49;100686.66;5069144;28;20204;-83
2021/01/05 10:15:31;;;;;;;20.43;15.37;;;;;;;2.37;84.95;100691.75;5057480;28;20232;-84
2021/01/05 10:17:57;;;;;;;25.37;16.20;;;;;;;2.37;85.29;100686.59;5058039;28;20201;-84
2021/01/05 10:20:23;;;;;;;22.20;16.63;;;;;;;2.38;85.17;100688.34;5052993;28;20756;-83
2021/01/05 10:22:49;;;;;;;23.50;15.27;;;;;;;2.47;86.56;100695.38;5066602;28;20252;-83
2021/01/05 10:25:16;;;;;;;22.33;16.30;;;;;;;2.48;86.06;100691.94;5057971;28;20203;-84
2021/01/05 10:27:42;;;;;;;20.10;16.60;;;;;;;2.46;85.18;100693.63;5064623;28;20201;-87
2021/01/05 10:30:11;;;;;;;22.13;16.43;;;;;;;2.46;85.14;100688.47;5060816;28;20240;-89
2021/01/05 10:32:37;;;;;;;26.07;16.90;;;;;;;2.52;87.37;100694.63;5042883;28;20373;-86
2021/01/05 10:35:03;;;;;;;18.73;15.83;;;;;;;2.53;85.83;100690.31;5069560;28;20215;-87
2021/01/05 10:37:29;;;;;;;24.50;17.00;;;;;;;2.50;84.90;100687.72;5075796;28;20227;-87
2021/01/05 10:39:55;;;;;;;18.47;16.47;;;;;;;2.49;85.25;100685.97;5076648;28;20236;-85
2021/01/05 10:42:21;;;;;;;26.80;15.70;;;;;;;2.52;84.60;100686.88;5068624;28;20245;-86
2021/01/05 10:44:47;;;;;;;18.77;15.50;;;;;;;2.51;84.91;100682.56;5064363;28;20686;-86
2021/01/05 10:47:14;;;;;;;21.67;16.97;;;;;;;2.52;84.95;100686.03;5059383;28;20200;-86
2021/01/05 10:49:40;;;;;;;22.80;15.97;;;;;;;2.54;84.96;100682.63;5052661;28;20230;-86
2021/01/05 10:52:06;;;;;;;21.63;17.27;;;;;;;2.61;84.92;100677.56;5069691;28;20219;-86
2021/01/05 10:54:32;;;;;;;21.43;16.37;;;;;;;2.63;84.25;100681.03;5058028;28;20206;-85
2021/01/05 10:57:00;;;;;;;19.47;16.30;;;;;;;2.63;84.84;100681.91;5061668;28;20201;-84
2021/01/05 10:59:27;;;;;;;26.77;17.07;;;;;;;2.85;86.95;100688.28;5065489;28;20237;-83
2021/01/05 11:01:55;;;;;;;21.97;17.30;;;;;;;2.80;84.88;100689.06;5052022;28;20280;-83
2021/01/05 11:04:22;;;;;;;23.50;17.20;;;;;;;2.76;84.26;100685.56;5068695;28;20559;-83
2021/01/05 11:06:55;;;;;;;23.70;16.67;;;;;;;2.74;84.30;100682.97;5057263;28;20210;-83
2021/01/05 11:09:22;;;;;;;17.10;14.37;;;;;;;2.87;84.21;100685.75;5058186;28;20272;-82
2021/01/05 11:11:54;;;;;;;21.17;16.00;;;;;;;2.84;83.53;100671.09;5065783;28;20625;-84
2021/01/05 11:14:20;;;;;;;16.80;13.73;;;;;;;2.76;83.41;100677.84;5061334;28;20240;-85
2021/01/05 11:16:47;;;;;;;15.87;13.93;;;;;;;2.72;83.70;100676.06;5058554;28;20213;-83
2021/01/05 11:19:13;;;;;;;19.77;14.63;;;;;;;2.74;82.87;100674.38;5055392;28;20218;-83
2021/01/05 11:21:41;;;;;;;20.43;15.07;;;;;;;2.71;83.10;100670.00;5054707;28;20197;-84
2021/01/05 11:24:07;;;;;;;22.67;15.47;;;;;;;2.65;83.84;100664.75;5055007;28;20205;-84
2021/01/05 11:26:34;;;;;;;24.70;15.40;;;;;;;2.66;84.01;100670.81;5058001;28;20205;-84
2021/01/05 11:29:00;;;;;;;21.97;15.27;;;;;;;2.65;84.01;100664.75;5063443;28;20217;-86
2021/01/05 11:31:26;;;;;;;20.90;14.30;;;;;;;2.66;83.46;100663.94;4348990;28;10000756;-84
2021/01/05 11:33:52;;;;;;;15.43;13.33;;;;;;;2.64;83.78;100668.19;5052489;28;20689;-84
2021/01/05 11:36:23;;;;;;;17.53;12.93;;;;;;;2.58;84.22;100661.22;5051409;28;20294;-84
2021/01/05 11:38:50;;;;;;;18.43;12.27;;;;;;;2.58;83.34;100660.38;5058729;28;20936;-84
2021/01/05 11:41:21;;;;;;;14.13;12.73;;;;;;;2.54;83.94;100653.44;5072824;28;20295;-84
2021/01/05 11:43:47;;;;;;;16.20;12.30;;;;;;;2.58;83.25;100660.38;5068960;28;20198;-83
2021/01/05 11:46:13;;;;;;;15.33;12.53;;;;;;;2.55;83.59;100656.00;5071616;28;20208;-83
2021/01/05 11:48:39;;;;;;;14.23;11.20;;;;;;;2.52;83.11;100653.38;5070599;28;20225;-82
2021/01/05 11:51:05;;;;;;;14.13;11.60;;;;;;;2.51;84.02;100648.19;5055781;28;20209;-83
2021/01/05 11:53:31;;;;;;;14.07;12.47;;;;;;;2.49;84.26;100648.16;5063662;28;20202;-83
2021/01/05 11:55:58;;;;;;;15.33;12.47;;;;;;;2.52;83.43;100647.38;5053603;28;20251;-83
2021/01/05 11:58:23;;;;;;;13.67;11.90;;;;;;;2.55;83.42;100650.84;5067706;28;20721;-83
2021/01/05 12:00:49;;;;;;;14.30;11.33;;;;;;;2.56;84.11;100651.75;5062718;28;20224;-83
2021/01/05 12:03:15;;;;;;;11.90;10.67;;;;;;;2.59;83.60;100646.63;5070769;28;20204;-83
2021/01/05 12:05:41;;;;;;;12.17;10.73;;;;;;;2.58;83.71;100642.31;5052529;28;20209;-84
2021/01/05 12:08:07;;;;;;;19.23;12.53;;;;;;;2.59;84.34;100641.47;5061141;28;20209;-83
2021/01/05 12:10:32;;;;;;;13.23;11.40;;;;;;;2.58;83.91;100644.91;5046771;28;20280;-83
2021/01/05 12:12:59;;;;;;;13.60;12.23;;;;;;;2.63;83.78;100642.38;5052066;28;20236;-83
2021/01/05 12:15:25;;;;;;;13.30;11.90;;;;;;;2.64;84.08;100633.84;5057754;28;20205;-83
2021/01/05 12:17:51;;;;;;;11.83;10.43;;;;;;;2.63;83.88;100637.25;5062578;28;20641;-83
2021/01/05 12:20:17;;;;;;;12.67;11.40;;;;;;;2.57;83.92;100636.28;5055464;28;20307;-83
2021/01/05 12:22:42;;;;;;;12.77;11.13;;;;;;;2.62;83.94;100638.06;5050122;28;20687;-84
2021/01/05 12:25:10;;;;;;;12.73;11.13;;;;;;;2.62;83.70;100635.50;5050762;28;20216;-83
2021/01/05 12:27:36;;;;;;;12.87;10.57;;;;;;;2.59;83.65;100632.00;5071346;28;20204;-83
2021/01/05 12:30:04;;;;;;;12.43;11.23;;;;;;;2.55;84.01;100637.09;5061877;28;20220;-83
2021/01/05 12:32:30;;;;;;;12.57;11.33;;;;;;;2.46;82.97;100631.78;5057382;28;20201;-84
2021/01/05 12:34:56;;;;;;;10.93;9.83;;;;;;;2.45;82.96;100630.06;5063480;28;20685;-84